Time;durP1;ratioP1;P1;durP2;ratioP2;P2;SDS_P1;SDS_P2;PMS_P1;PMS_P2;Temp;Humidity;BMP_temperature;BMP_pressure;BME280_temperature;BME280_humidity;BME280_pressure;Samples;Min_cycle;Max_cycle;Signal;HPM_P1;HPM_P2
2023/04/01 00:01:27;;;;;;;;;;;7.30;99.90;;;;;;5069881;28;20330;-63
2023/04/01 00:04:01;;;;;;;;;;;7.30;99.90;;;;;;5072498;28;19924;-63
2023/04/01 00:06:33;;;;;;;;;;;7.30;99.90;;;;;;5053175;28;19974;-63
2023/04/01 00:09:05;;;;;;;;;;;7.40;99.90;;;;;;5068223;28;20411;-63
2023/04/01 00:11:36;;;;;;;;;;;7.30;99.90;;;;;;5068643;28;20400;-63
2023/04/01 00:14:08;;;;;;;;;;;7.40;99.90;;;;;;5069978;28;19928;-63
2023/04/01 00:16:35;;;;;;;;;;;7.40;99.90;;;;;;5070523;28;20316;-63
2023/04/01 00:19:07;;;;;;;;;;;7.40;99.90;;;;;;5067546;28;19924;-63
2023/04/01 00:21:39;;;;;;;;;;;7.40;99.90;;;;;;5069418;28;19920;-63
2023/04/01 00:24:10;;;;;;;;;;;7.50;99.90;;;;;;5071692;28;19928;-63
2023/04/01 00:26:43;;;;;;;;;;;7.50;99.90;;;;;;5072046;28;19966;-63
2023/04/01 00:29:15;;;;;;;;;;;7.50;99.90;;;;;;5068086;28;19932;-63
2023/04/01 00:31:48;;;;;;;;;;;7.50;99.90;;;;;;5069152;28;19920;-63
2023/04/01 00:34:15;;;;;;;;;;;7.50;99.90;;;;;;5054086;28;19921;-62
2023/04/01 00:36:42;;;;;;;;;;;7.60;99.90;;;;;;5068232;28;20007;-63
2023/04/01 00:39:14;;;;;;;;;;;7.50;99.90;;;;;;5068331;28;20015;-63
2023/04/01 00:41:46;;;;;;;;;;;7.50;99.90;;;;;;5070583;28;19930;-62
2023/04/01 00:44:19;;;;;;;;;;;7.60;99.90;;;;;;5071035;28;20460;-63
2023/04/01 00:46:46;;;;;;;;;;;7.50;99.90;;;;;;5071606;28;20535;-63
2023/04/01 00:49:20;;;;;;;;;;;7.50;99.90;;;;;;5053707;28;19963;-63
2023/04/01 00:51:54;;;;;;;;;;;7.50;99.90;;;;;;5070111;28;19921;-63
2023/04/01 00:54:26;;;;;;;;;;;7.50;99.90;;;;;;5054530;28;19924;-63
2023/04/01 00:57:05;;;;;;;;;;;7.40;99.90;;;;;;5067945;28;19927;-63
2023/04/01 00:59:38;;;;;;;;;;;7.40;99.90;;;;;;5055755;28;19925;-63
2023/04/01 01:02:08;;;;;;;;;;;7.40;99.90;;;;;;5067614;28;20038;-63
2023/04/01 01:04:40;;;;;;;;;;;7.40;99.90;;;;;;5051655;28;19920;-63
2023/04/01 01:07:20;;;;;;;;;;;7.40;99.90;;;;;;5069347;28;20403;-63
2023/04/01 01:09:52;;;;;;;;;;;7.30;99.90;;;;;;5057306;28;19927;-63
2023/04/01 01:12:42;;;;;;;;;;;7.30;99.90;;;;;;5069640;28;19920;-63
2023/04/01 01:15:14;;;;;;;;;;;7.30;99.90;;;;;;5069538;28;19924;-63
2023/04/01 01:18:05;;;;;;;;;;;7.30;99.90;;;;;;5069026;28;19927;-63
2023/04/01 01:20:52;;;;;;;;;;;7.30;99.90;;;;;;5053028;28;19924;-63
2023/04/01 01:23:36;;;;;;;;;;;7.20;99.90;;;;;;5052739;28;19927;-63
2023/04/01 01:26:17;;;;;;;;;;;7.10;99.90;;;;;;5067196;28;19924;-63
2023/04/01 01:28:52;;;;;;;;;;;7.20;99.90;;;;;;5051145;28;19920;-63
2023/04/01 01:31:42;;;;;;;;;;;7.10;99.90;;;;;;5055603;28;20296;-63
2023/04/01 01:34:20;;;;;;;;;;;7.10;99.90;;;;;;5070860;28;19924;-63
2023/04/01 01:36:58;;;;;;;;;;;7.10;99.90;;;;;;5069137;28;19920;-62
2023/04/01 01:39:31;;;;;;;;;;;7.10;99.90;;;;;;5050671;28;20411;-63
2023/04/01 01:42:00;;;;;;;;;;;7.00;99.90;;;;;;5066231;28;19926;-63
2023/04/01 01:44:33;;;;;;;;;;;7.10;99.90;;;;;;5068311;28;19968;-63
2023/04/01 01:47:00;;;;;;;;;;;7.10;99.90;;;;;;5066330;28;20315;-63
2023/04/01 01:49:33;;;;;;;;;;;7.10;99.90;;;;;;5052450;28;20284;-63
2023/04/01 01:52:04;;;;;;;;;;;7.10;99.90;;;;;;5055971;28;19920;-63
2023/04/01 01:54:31;;;;;;;;;;;7.10;99.90;;;;;;5070872;28;19924;-63
2023/04/01 01:57:08;;;;;;;;;;;7.20;99.90;;;;;;5065251;28;20296;-63
2023/04/01 01:59:38;;;;;;;;;;;7.10;99.90;;;;;;5050944;28;19953;-63
2023/04/01 02:02:14;;;;;;;;;;;7.10;99.90;;;;;;5065062;28;19920;-63
2023/04/01 02:04:47;;;;;;;;;;;7.10;99.90;;;;;;5053938;28;19924;-62
2023/04/01 02:07:16;;;;;;;;;;;7.10;99.90;;;;;;5065622;28;19924;-63
2023/04/01 02:09:48;;;;;;;;;;;7.10;99.90;;;;;;5049468;28;20416;-63
2023/04/01 02:12:21;;;;;;;;;;;7.00;99.90;;;;;;5052157;28;20320;-62
2023/04/01 02:14:55;;;;;;;;;;;7.00;99.90;;;;;;5068080;28;19931;-63
2023/04/01 02:17:23;;;;;;;;;;;6.90;99.90;;;;;;5052184;28;19970;-63
2023/04/01 02:19:57;;;;;;;;;;;6.90;99.90;;;;;;5069248;28;19924;-63
2023/04/01 02:22:31;;;;;;;;;;;6.80;99.90;;;;;;5053028;28;19971;-63
2023/04/01 02:25:06;;;;;;;;;;;6.80;99.90;;;;;;5048488;28;19921;-63
2023/04/01 02:27:38;;;;;;;;;;;6.80;99.90;;;;;;5035352;28;19921;-63
2023/04/01 02:30:11;;;;;;;;;;;6.70;99.90;;;;;;5064813;28;20011;-62
2023/04/01 02:32:38;;;;;;;;;;;6.70;99.90;;;;;;5065345;28;19926;-62
2023/04/01 02:35:11;;;;;;;;;;;6.70;99.90;;;;;;5051222;28;19920;-63
2023/04/01 02:37:44;;;;;;;;;;;6.70;99.90;;;;;;5050499;28;19920;-63
2023/04/01 02:40:13;;;;;;;;;;;6.70;99.90;;;;;;5054656;28;19935;-63
2023/04/01 02:42:45;;;;;;;;;;;6.70;99.90;;;;;;5054563;28;19920;-63
2023/04/01 02:45:13;;;;;;;;;;;6.60;99.90;;;;;;5067542;28;19920;-62
2023/04/01 02:47:44;;;;;;;;;;;6.60;99.90;;;;;;5067279;28;19921;-62
2023/04/01 02:50:16;;;;;;;;;;;6.60;99.90;;;;;;5052019;28;19928;-63
2023/04/01 02:52:43;;;;;;;;;;;6.60;99.90;;;;;;5066734;28;20308;-63
2023/04/01 02:55:15;;;;;;;;;;;6.60;99.90;;;;;;5050785;28;19920;-63
2023/04/01 02:57:41;;;;;;;;;;;6.60;99.90;;;;;;5066105;28;20435;-63
2023/04/01 03:00:14;;;;;;;;;;;6.50;99.90;;;;;;5066591;28;19927;-63
2023/04/01 03:02:41;;;;;;;;;;;6.50;99.90;;;;;;5053968;28;19924;-63
2023/04/01 03:05:13;;;;;;;;;;;6.50;99.90;;;;;;5051993;28;19974;-63
2023/04/01 03:07:45;;;;;;;;;;;6.40;99.90;;;;;;5069408;28;19924;-63
2023/04/01 03:10:17;;;;;;;;;;;6.40;99.90;;;;;;5052193;28;20007;-63
2023/04/01 03:12:49;;;;;;;;;;;6.50;99.90;;;;;;5049837;28;19978;-62
2023/04/01 03:15:16;;;;;;;;;;;6.50;99.90;;;;;;5051099;28;19920;-63
2023/04/01 03:17:48;;;;;;;;;;;6.50;99.90;;;;;;5051310;28;20418;-63
2023/04/01 03:20:20;;;;;;;;;;;6.50;99.90;;;;;;5036764;28;19920;-63
2023/04/01 03:22:52;;;;;;;;;;;6.40;99.90;;;;;;5054299;28;20394;-63
2023/04/01 03:25:23;;;;;;;;;;;6.50;99.90;;;;;;5051904;28;19932;-63
2023/04/01 03:27:50;;;;;;;;;;;6.50;99.90;;;;;;5069070;28;19920;-63
2023/04/01 03:30:22;;;;;;;;;;;6.50;99.90;;;;;;5054938;28;19967;-63
2023/04/01 03:32:54;;;;;;;;;;;6.50;99.90;;;;;;5070021;28;19920;-63
2023/04/01 03:35:26;;;;;;;;;;;6.50;99.90;;;;;;5069215;28;19927;-63
2023/04/01 03:37:58;;;;;;;;;;;6.50;99.90;;;;;;5070210;28;20308;-63
2023/04/01 03:40:30;;;;;;;;;;;6.50;99.90;;;;;;5067879;28;20282;-63
2023/04/01 03:43:01;;;;;;;;;;;6.60;99.90;;;;;;5057253;28;20327;-63
2023/04/01 03:45:33;;;;;;;;;;;6.60;99.90;;;;;;5068132;28;19920;-63
2023/04/01 03:48:00;;;;;;;;;;;6.50;99.90;;;;;;5071153;28;19920;-63
2023/04/01 03:50:34;;;;;;;;;;;6.50;99.90;;;;;;5054534;28;19928;-63
2023/04/01 03:53:06;;;;;;;;;;;6.50;99.90;;;;;;5068247;28;19927;-63
2023/04/01 03:55:40;;;;;;;;;;;6.50;99.90;;;;;;5057340;28;19920;-63
2023/04/01 03:58:07;;;;;;;;;;;6.50;99.90;;;;;;5070308;28;20316;-63
2023/04/01 04:00:40;;;;;;;;;;;6.40;99.90;;;;;;5069232;28;19931;-63
2023/04/01 04:03:12;;;;;;;;;;;6.40;99.90;;;;;;5067285;28;20460;-63
2023/04/01 04:05:47;;;;;;;;;;;6.40;99.90;;;;;;5038246;28;19934;-63
2023/04/01 04:08:15;;;;;;;;;;;6.40;99.90;;;;;;5060601;28;19956;-63
2023/04/01 04:10:54;;;;;;;;;;;6.40;99.90;;;;;;5055891;28;19920;-63
2023/04/01 04:13:26;;;;;;;;;;;6.40;99.90;;;;;;5059361;28;20018;-63
2023/04/01 04:16:00;;;;;;;;;;;6.40;99.90;;;;;;5068358;28;20443;-64
2023/04/01 04:18:33;;;;;;;;;;;6.40;99.90;;;;;;5066529;28;19927;-63
2023/04/01 04:21:00;;;;;;;;;;;6.40;99.90;;;;;;5070280;28;19921;-63
2023/04/01 04:23:33;;;;;;;;;;;6.40;99.90;;;;;;5037909;28;19956;-63
2023/04/01 04:26:06;;;;;;;;;;;6.40;99.90;;;;;;5058160;28;19924;-63
2023/04/01 04:28:39;;;;;;;;;;;6.50;99.90;;;;;;5052267;28;19920;-63
2023/04/01 04:31:12;;;;;;;;;;;6.50;99.90;;;;;;5045290;28;19932;-63
2023/04/01 04:33:40;;;;;;;;;;;6.50;99.90;;;;;;5048383;28;20138;-63
2023/04/01 04:36:14;;;;;;;;;;;6.60;99.90;;;;;;5052575;28;19932;-63
2023/04/01 04:38:47;;;;;;;;;;;6.60;99.90;;;;;;5071144;28;19927;-63
2023/04/01 04:41:21;;;;;;;;;;;6.60;99.90;;;;;;5036717;28;20377;-63
2023/04/01 04:43:54;;;;;;;;;;;6.70;99.90;;;;;;5036094;28;20297;-64
2023/04/01 04:46:26;;;;;;;;;;;6.70;99.90;;;;;;5071655;28;19928;-63
2023/04/01 04:49:07;;;;;;;;;;;6.70;99.90;;;;;;5052886;28;19920;-63
2023/04/01 04:51:39;;;;;;;;;;;6.70;99.90;;;;;;5068868;28;20023;-63
2023/04/01 04:54:14;;;;;;;;;;;6.70;99.90;;;;;;5070106;28;20463;-63
2023/04/01 04:56:51;;;;;;;;;;;6.70;99.90;;;;;;5059781;28;20289;-63
2023/04/01 04:59:18;;;;;;;;;;;6.70;99.90;;;;;;5070730;28;19931;-63
2023/04/01 05:02:16;;;;;;;;;;;6.70;99.90;;;;;;5068309;28;19921;-63
2023/04/01 05:04:48;;;;;;;;;;;6.70;99.90;;;;;;5054294;28;19927;-64
2023/04/01 05:07:19;;;;;;;;;;;6.80;99.90;;;;;;5054778;28;20312;-63
2023/04/01 05:09:51;;;;;;;;;;;6.80;99.90;;;;;;5066880;28;20313;-63
2023/04/01 05:12:18;;;;;;;;;;;6.80;99.90;;;;;;5066708;28;20711;-63
2023/04/01 05:14:57;;;;;;;;;;;6.80;99.90;;;;;;5054790;28;19927;-63
2023/04/01 05:17:29;;;;;;;;;;;6.80;99.90;;;;;;5067179;28;20388;-63
2023/04/01 05:20:03;;;;;;;;;;;6.80;99.90;;;;;;5061519;28;19971;-63
2023/04/01 05:22:34;;;;;;;;;;;6.80;99.90;;;;;;5051644;28;19927;-63
2023/04/01 05:25:01;;;;;;;;;;;6.80;99.90;;;;;;5070211;28;19932;-63
2023/04/01 05:27:33;;;;;;;;;;;6.80;99.90;;;;;;5052808;28;19921;-63
2023/04/01 05:30:06;;;;;;;;;;;6.80;99.90;;;;;;5037802;28;19921;-63
2023/04/01 05:32:55;;;;;;;;;;;6.80;99.90;;;;;;5055067;28;19931;-63
2023/04/01 05:35:23;;;;;;;;;;;6.90;99.90;;;;;;5062139;28;19931;-64
2023/04/01 05:37:55;;;;;;;;;;;6.90;99.90;;;;;;5067613;28;19924;-63
2023/04/01 05:40:27;;;;;;;;;;;6.80;99.90;;;;;;5067680;28;19921;-63
2023/04/01 05:42:59;;;;;;;;;;;6.80;99.90;;;;;;5054940;28;20261;-63
2023/04/01 05:45:31;;;;;;;;;;;6.80;99.90;;;;;;5050857;28;19921;-63
2023/04/01 05:48:15;;;;;;;;;;;6.80;99.90;;;;;;5055822;28;19927;-63
2023/04/01 05:50:46;;;;;;;;;;;6.80;99.90;;;;;;5039676;28;19965;-63
2023/04/01 05:53:18;;;;;;;;;;;6.90;99.90;;;;;;5053409;28;19924;-63
2023/04/01 05:55:50;;;;;;;;;;;7.00;99.90;;;;;;5051678;28;19942;-63
2023/04/01 05:58:22;;;;;;;;;;;7.00;99.90;;;;;;5051684;28;20026;-63
2023/04/01 06:00:59;;;;;;;;;;;7.10;99.90;;;;;;5051527;28;19920;-63
2023/04/01 06:03:31;;;;;;;;;;;7.10;99.90;;;;;;5068967;28;20343;-63
2023/04/01 06:06:04;;;;;;;;;;;7.10;99.90;;;;;;5051377;28;20010;-62
2023/04/01 06:08:31;;;;;;;;;;;7.10;99.90;;;;;;5051116;28;19928;-63
2023/04/01 06:11:21;;;;;;;;;;;7.20;99.90;;;;;;5052684;28;19924;-63
2023/04/01 06:14:05;;;;;;;;;;;7.20;99.90;;;;;;5053080;28;19924;-63
2023/04/01 06:17:04;;;;;;;;;;;7.20;99.90;;;;;;5051511;28;19924;-63
2023/04/01 06:19:39;;;;;;;;;;;7.30;99.90;;;;;;5046087;28;19927;-63
2023/04/01 06:22:47;;;;;;;;;;;7.40;99.90;;;;;;5064914;28;20442;-63
2023/04/01 06:25:27;;;;;;;;;;;7.40;99.90;;;;;;4988721;28;20032;-63
2023/04/01 06:28:18;;;;;;;;;;;7.50;99.90;;;;;;5039628;28;19925;-63
2023/04/01 06:30:53;;;;;;;;;;;7.50;99.90;;;;;;5051167;28;19920;-63
2023/04/01 06:33:42;;;;;;;;;;;7.50;99.90;;;;;;5062385;28;19920;-62
2023/04/01 06:36:43;;;;;;;;;;;7.50;99.90;;;;;;5051390;28;19927;-63
2023/04/01 06:39:16;;;;;;;;;;;7.50;99.90;;;;;;4998476;28;19921;-63
2023/04/01 06:41:51;;;;;;;;;;;7.50;99.90;;;;;;5050857;28;19981;-63
2023/04/01 06:44:34;;;;;;;;;;;7.50;99.90;;;;;;5053534;28;19920;-62
2023/04/01 06:47:43;;;;;;;;;;;7.50;99.90;;;;;;5064837;28;19928;-63
2023/04/01 06:50:53;;;;;;;;;;;7.60;99.90;;;;;;5069020;28;19927;-63
2023/04/01 06:53:52;;;;;;;;;;;7.60;99.90;;;;;;5068562;28;19943;-63
2023/04/01 06:56:46;;;;;;;;;;;7.60;99.90;;;;;;5069194;28;19931;-63
2023/04/01 06:59:27;;;;;;;;;;;7.70;99.90;;;;;;5068711;28;20503;-63
2023/04/01 07:02:00;;;;;;;;;;;7.80;99.90;;;;;;5062697;28;19927;-63
2023/04/01 07:04:38;;;;;;;;;;;7.90;99.90;;;;;;5067995;28;19928;-63
2023/04/01 07:07:16;;;;;;;;;;;8.00;99.90;;;;;;5038034;28;19920;-63
2023/04/01 07:09:59;;;;;;;;;;;8.00;99.90;;;;;;5049080;28;20392;-63
2023/04/01 07:12:31;;;;;;;;;;;8.00;99.90;;;;;;5071021;28;20319;-63
2023/04/01 07:15:24;;;;;;;;;;;8.00;99.90;;;;;;5056648;28;19951;-63
2023/04/01 07:17:56;;;;;;;;;;;7.90;99.90;;;;;;5048131;28;20523;-63
2023/04/01 07:20:30;;;;;;;;;;;7.90;99.90;;;;;;5027065;28;19979;-63
2023/04/01 07:23:05;;;;;;;;;;;7.90;99.90;;;;;;5053642;28;19920;-63
2023/04/01 07:25:59;;;;;;;;;;;7.90;99.90;;;;;;5073235;28;19927;-63
2023/04/01 07:28:30;;;;;;;;;;;7.90;99.90;;;;;;5069336;28;19921;-63
2023/04/01 07:31:18;;;;;;;;;;;7.90;99.90;;;;;;5056698;28;19920;-63
2023/04/01 07:33:50;;;;;;;;;;;8.00;99.90;;;;;;5054977;28;19924;-63
2023/04/01 07:36:37;;;;;;;;;;;8.10;99.90;;;;;;5045045;28;19925;-63
2023/04/01 07:39:15;;;;;;;;;;;8.10;99.90;;;;;;5070797;28;19920;-63
2023/04/01 07:42:16;;;;;;;;;;;8.10;99.90;;;;;;5056783;28;19920;-63
2023/04/01 07:45:06;;;;;;;;;;;8.10;99.90;;;;;;5040975;28;20015;-63
2023/04/01 07:47:58;;;;;;;;;;;8.20;99.90;;;;;;5038784;28;19967;-63
2023/04/01 07:50:32;;;;;;;;;;;8.20;99.90;;;;;;5052854;28;19927;-62
2023/04/01 07:53:13;;;;;;;;;;;8.20;99.90;;;;;;5055396;28;20315;-63
2023/04/01 07:56:05;;;;;;;;;;;8.30;99.90;;;;;;5064205;28;19971;-62
2023/04/01 07:58:47;;;;;;;;;;;8.30;99.90;;;;;;5067474;28;19927;-63
2023/04/01 08:02:02;;;;;;;;;;;8.40;99.90;;;;;;5068545;28;20396;-64
2023/04/01 08:04:42;;;;;;;;;;;8.50;99.90;;;;;;5052510;28;20515;-63
2023/04/01 08:07:11;;;;;;;;;;;8.60;99.90;;;;;;5062146;28;19927;-63
2023/04/01 08:10:08;;;;;;;;;;;8.60;99.90;;;;;;5060652;28;20014;-62
2023/04/01 08:13:01;;;;;;;;;;;8.70;99.90;;;;;;5070488;28;20458;-63
2023/04/01 08:16:09;;;;;;;;;;;8.60;99.90;;;;;;5052816;28;20378;-62
2023/04/01 08:18:46;;;;;;;;;;;8.80;99.90;;;;;;5055436;28;19924;-63
2023/04/01 08:21:18;;;;;;;;;;;8.80;99.90;;;;;;5053874;28;19920;-63
2023/04/01 08:23:52;;;;;;;;;;;8.90;99.90;;;;;;5066203;28;19928;-63
2023/04/01 08:26:36;;;;;;;;;;;9.00;99.90;;;;;;5072033;28;20400;-63
2023/04/01 08:29:16;;;;;;;;;;;9.00;99.90;;;;;;5070258;28;19928;-63
2023/04/01 08:31:48;;;;;;;;;;;9.00;99.90;;;;;;5068922;28;19963;-63
2023/04/01 08:34:32;;;;;;;;;;;8.90;99.90;;;;;;5060688;28;20456;-63
2023/04/01 08:37:06;;;;;;;;;;;9.00;99.90;;;;;;5052909;28;20399;-63
2023/04/01 08:39:40;;;;;;;;;;;9.00;99.90;;;;;;5066394;28;19926;-63
2023/04/01 08:42:28;;;;;;;;;;;9.00;99.90;;;;;;5053316;28;19924;-63
2023/04/01 08:45:18;;;;;;;;;;;9.10;99.90;;;;;;5070131;28;20385;-63
2023/04/01 08:48:14;;;;;;;;;;;9.10;99.90;;;;;;5070211;28;19925;-63
2023/04/01 08:50:52;;;;;;;;;;;9.10;99.90;;;;;;5054030;28;19924;-63
2023/04/01 08:53:42;;;;;;;;;;;9.20;99.90;;;;;;5055647;28;20396;-63
2023/04/01 08:56:25;;;;;;;;;;;9.10;99.90;;;;;;5057920;28;19920;-63
2023/04/01 08:59:12;;;;;;;;;;;9.10;99.90;;;;;;5046070;28;19935;-63
2023/04/01 09:01:48;;;;;;;;;;;9.20;99.90;;;;;;5066617;28;20311;-63
2023/04/01 09:04:46;;;;;;;;;;;9.20;99.90;;;;;;5052298;28;20338;-62
2023/04/01 09:07:24;;;;;;;;;;;9.30;99.90;;;;;;5066745;28;19948;-62
2023/04/01 09:10:14;;;;;;;;;;;9.40;99.90;;;;;;5062030;28;20426;-63
2023/04/01 09:13:02;;;;;;;;;;;9.40;99.90;;;;;;5067780;28;19926;-63
2023/04/01 09:15:36;;;;;;;;;;;9.50;99.90;;;;;;5055570;28;19921;-63
2023/04/01 09:18:16;;;;;;;;;;;9.50;99.90;;;;;;5051409;28;19927;-62
2023/04/01 09:21:12;;;;;;;;;;;9.50;99.90;;;;;;5070324;28;19924;-63
2023/04/01 09:23:48;;;;;;;;;;;9.50;99.90;;;;;;5066848;28;19924;-63
2023/04/01 09:26:38;;;;;;;;;;;9.50;99.90;;;;;;5051471;28;19924;-63
2023/04/01 09:29:30;;;;;;;;;;;9.50;99.90;;;;;;5070933;28;19970;-63
2023/04/01 09:32:14;;;;;;;;;;;9.60;99.90;;;;;;5053798;28;20388;-63
2023/04/01 09:34:51;;;;;;;;;;;9.60;99.90;;;;;;5055927;28;19927;-63
2023/04/01 09:37:32;;;;;;;;;;;9.50;99.90;;;;;;5069420;28;20412;-63
2023/04/01 09:40:18;;;;;;;;;;;9.60;99.90;;;;;;5058436;28;19931;-63
2023/04/01 09:42:56;;;;;;;;;;;9.50;99.90;;;;;;5053084;28;20430;-63
2023/04/01 09:45:32;;;;;;;;;;;9.40;99.90;;;;;;5050856;28;20349;-63
2023/04/01 09:48:14;;;;;;;;;;;9.40;99.90;;;;;;5054030;28;20373;-63
2023/04/01 09:50:52;;;;;;;;;;;9.40;99.90;;;;;;5052736;28;19921;-63
2023/04/01 09:53:35;;;;;;;;;;;9.30;99.90;;;;;;5068586;28;19924;-63
2023/04/01 09:56:08;;;;;;;;;;;9.30;99.90;;;;;;5067228;28;19920;-63
2023/04/01 09:58:54;;;;;;;;;;;9.30;99.90;;;;;;5052276;28;19924;-62
2023/04/01 10:01:52;;;;;;;;;;;9.10;99.90;;;;;;5067553;28;19986;-63
2023/04/01 10:04:30;;;;;;;;;;;9.00;99.90;;;;;;5053141;28;19958;-63
2023/04/01 10:07:12;;;;;;;;;;;9.00;99.90;;;;;;5066426;28;20077;-63
2023/04/01 10:09:56;;;;;;;;;;;8.90;99.90;;;;;;5052271;28;20385;-63
2023/04/01 10:12:34;;;;;;;;;;;8.90;99.90;;;;;;5066473;28;19924;-63
2023/04/01 10:15:11;;;;;;;;;;;8.80;99.90;;;;;;5067712;28;19920;-63
2023/04/01 10:17:52;;;;;;;;;;;8.80;99.90;;;;;;5051863;28;19927;-63
2023/04/01 10:20:22;;;;;;;;;;;8.80;99.90;;;;;;5070133;28;19927;-63
2023/04/01 10:23:08;;;;;;;;;;;8.70;99.90;;;;;;5070936;28;19924;-63
2023/04/01 10:25:58;;;;;;;;;;;8.70;99.90;;;;;;5049406;28;20290;-63
2023/04/01 10:28:38;;;;;;;;;;;8.60;99.90;;;;;;5034245;28;19927;-63
2023/04/01 10:31:30;;;;;;;;;;;8.50;99.90;;;;;;5052682;28;20331;-63
2023/04/01 10:34:00;;;;;;;;;;;8.50;99.90;;;;;;5034604;28;19924;-63
2023/04/01 10:36:33;;;;;;;;;;;8.40;99.90;;;;;;5051246;28;20007;-64
2023/04/01 10:39:25;;;;;;;;;;;8.30;99.90;;;;;;5036424;28;20012;-64
2023/04/01 10:42:17;;;;;;;;;;;8.20;99.90;;;;;;5055722;28;19920;-63
2023/04/01 10:45:37;;;;;;;;;;;8.10;99.90;;;;;;5070143;28;19924;-64
2023/04/01 10:48:15;;;;;;;;;;;8.00;99.90;;;;;;5052434;28;19970;-64
2023/04/01 10:51:06;;;;;;;;;;;8.00;99.90;;;;;;5053175;28;19948;-63
2023/04/01 10:53:53;;;;;;;;;;;7.90;99.90;;;;;;5035316;28;20297;-64
2023/04/01 10:57:06;;;;;;;;;;;7.80;99.90;;;;;;5060521;28;20042;-64
2023/04/01 10:59:52;;;;;;;;;;;7.90;99.90;;;;;;5069410;28;19920;-64
2023/04/01 11:02:56;;;;;;;;;;;7.90;99.90;;;;;;5034630;28;19924;-64
2023/04/01 11:05:47;;;;;;;;;;;7.90;99.90;;;;;;5065271;28;20526;-63
2023/04/01 11:08:36;;;;;;;;;;;7.90;99.90;;;;;;5067747;28;19963;-64
2023/04/01 11:11:25;;;;;;;;;;;7.90;99.90;;;;;;5053023;28;19987;-64
2023/04/01 11:14:07;;;;;;;;;;;7.90;99.90;;;;;;5067315;28;19927;-64
2023/04/01 11:16:42;;;;;;;;;;;7.90;99.90;;;;;;5054872;28;19920;-64
2023/04/01 11:19:33;;;;;;;;;;;8.00;99.90;;;;;;5055264;28;19927;-64
2023/04/01 11:22:10;;;;;;;;;;;8.00;99.90;;;;;;5069530;28;19936;-64
2023/04/01 11:25:03;;;;;;;;;;;8.00;99.90;;;;;;5065772;28;19925;-63
2023/04/01 11:27:53;;;;;;;;;;;8.10;99.90;;;;;;5043211;28;19927;-63
2023/04/01 11:30:26;;;;;;;;;;;8.20;99.90;;;;;;5063314;28;20297;-63
2023/04/01 11:32:54;;;;;;;;;;;8.20;99.90;;;;;;5038613;28;19943;-64
2023/04/01 11:35:50;;;;;;;;;;;8.30;99.90;;;;;;5055711;28;19921;-63
2023/04/01 11:38:22;;;;;;;;;;;8.40;99.90;;;;;;5067830;28;19924;-64
2023/04/01 11:40:59;;;;;;;;;;;8.50;99.90;;;;;;5064966;28;19932;-63
2023/04/01 11:44:01;;;;;;;;;;;8.50;99.90;;;;;;5038556;28;19921;-63
2023/04/01 11:47:12;;;;;;;;;;;8.50;99.90;;;;;;5064427;28;19928;-63
2023/04/01 11:49:49;;;;;;;;;;;8.50;99.90;;;;;;5038028;28;19924;-63
2023/04/01 11:52:42;;;;;;;;;;;8.50;99.90;;;;;;5050148;28;20504;-63
2023/04/01 11:55:25;;;;;;;;;;;8.50;99.90;;;;;;5067851;28;19973;-63
2023/04/01 11:58:06;;;;;;;;;;;8.50;99.90;;;;;;5063891;28;19932;-64
2023/04/01 12:00:46;;;;;;;;;;;8.60;99.90;;;;;;5073452;28;19970;-63
2023/04/01 12:03:32;;;;;;;;;;;8.60;99.90;;;;;;5073900;28;19924;-64
2023/04/01 12:06:07;;;;;;;;;;;8.60;99.90;;;;;;5051689;28;19932;-64
2023/04/01 12:08:54;;;;;;;;;;;8.50;99.90;;;;;;5068194;28;19951;-64
2023/04/01 12:11:34;;;;;;;;;;;8.50;99.90;;;;;;5074991;28;19920;-65
2023/04/01 12:14:10;;;;;;;;;;;8.40;99.90;;;;;;5066424;28;19932;-64
2023/04/01 12:16:56;;;;;;;;;;;8.30;99.90;;;;;;5054100;28;20654;-64
2023/04/01 12:19:34;;;;;;;;;;;8.30;99.90;;;;;;5054382;28;19970;-64
2023/04/01 12:22:14;;;;;;;;;;;8.20;99.90;;;;;;5061251;28;19932;-65
2023/04/01 12:25:01;;;;;;;;;;;8.20;99.90;;;;;;5075416;28;19924;-64
2023/04/01 12:27:38;;;;;;;;;;;8.20;99.90;;;;;;5043865;28;19932;-64
2023/04/01 12:30:29;;;;;;;;;;;8.20;99.90;;;;;;5050832;28;19982;-64
2023/04/01 12:33:16;;;;;;;;;;;8.10;99.90;;;;;;5071163;28;19924;-65
2023/04/01 12:35:47;;;;;;;;;;;8.10;99.90;;;;;;5065502;28;19928;-65
2023/04/01 12:38:31;;;;;;;;;;;8.10;99.90;;;;;;5054808;28;19924;-66
2023/04/01 12:41:03;;;;;;;;;;;8.20;99.90;;;;;;5067215;28;19947;-66
2023/04/01 12:43:42;;;;;;;;;;;8.20;99.90;;;;;;5074513;28;19923;-66
2023/04/01 12:46:24;;;;;;;;;;;8.10;99.90;;;;;;5053464;28;19920;-66
2023/04/01 12:49:14;;;;;;;;;;;8.10;99.90;;;;;;5072222;28;20043;-66
2023/04/01 12:52:05;;;;;;;;;;;8.20;99.90;;;;;;5058869;28;19923;-66
2023/04/01 12:54:56;;;;;;;;;;;8.20;99.90;;;;;;5043423;28;19936;-66
2023/04/01 12:57:39;;;;;;;;;;;8.30;99.90;;;;;;5050970;28;19928;-66
2023/04/01 13:00:11;;;;;;;;;;;8.50;99.90;;;;;;5064248;28;19920;-66
2023/04/01 13:03:02;;;;;;;;;;;8.60;99.90;;;;;;5050637;28;19962;-66
2023/04/01 13:05:48;;;;;;;;;;;8.70;99.90;;;;;;5050417;28;19939;-66
2023/04/01 13:08:22;;;;;;;;;;;8.60;99.90;;;;;;5053464;28;19959;-66
2023/04/01 13:11:02;;;;;;;;;;;8.70;99.90;;;;;;5067444;28;19927;-66
2023/04/01 13:13:43;;;;;;;;;;;8.70;99.90;;;;;;5067298;28;19920;-66
2023/04/01 13:16:19;;;;;;;;;;;8.60;99.90;;;;;;5069974;28;19924;-66
2023/04/01 13:18:56;;;;;;;;;;;8.50;99.90;;;;;;5053626;28;19963;-66
2023/04/01 13:21:41;;;;;;;;;;;8.70;99.90;;;;;;5044783;28;19925;-66
2023/04/01 13:24:22;;;;;;;;;;;8.80;99.90;;;;;;5051087;28;19978;-66
2023/04/01 13:26:58;;;;;;;;;;;8.80;99.90;;;;;;5072317;28;19921;-66
2023/04/01 13:29:30;;;;;;;;;;;8.90;99.90;;;;;;5047294;28;19920;-66
2023/04/01 13:32:15;;;;;;;;;;;8.90;99.90;;;;;;5070203;28;19920;-65
2023/04/01 13:34:59;;;;;;;;;;;8.90;99.90;;;;;;5068058;28;19921;-66
2023/04/01 13:37:47;;;;;;;;;;;9.00;99.90;;;;;;5062571;28;20407;-66
2023/04/01 13:40:30;;;;;;;;;;;9.00;99.90;;;;;;5046570;28;19943;-66
2023/04/01 13:43:05;;;;;;;;;;;9.10;99.90;;;;;;5061935;28;19931;-66
2023/04/01 13:45:56;;;;;;;;;;;9.00;99.90;;;;;;5063118;28;19920;-66
2023/04/01 13:48:36;;;;;;;;;;;8.90;99.90;;;;;;5063495;28;19931;-66
2023/04/01 13:51:26;;;;;;;;;;;8.90;99.90;;;;;;5068660;28;19983;-66
2023/04/01 13:54:12;;;;;;;;;;;8.90;99.90;;;;;;5053484;28;19931;-66
2023/04/01 13:56:58;;;;;;;;;;;8.90;99.90;;;;;;5066801;28;20761;-66
2023/04/01 13:59:25;;;;;;;;;;;8.80;99.90;;;;;;5065889;28;20470;-66
2023/04/01 14:02:15;;;;;;;;;;;8.80;99.90;;;;;;5033457;28;19924;-66
2023/04/01 14:04:45;;;;;;;;;;;8.70;99.90;;;;;;5064312;28;19921;-66
2023/04/01 14:07:31;;;;;;;;;;;8.70;99.90;;;;;;5059397;28;20732;-66
2023/04/01 14:10:03;;;;;;;;;;;8.70;99.90;;;;;;5063203;28;19950;-66
2023/04/01 14:13:02;;;;;;;;;;;8.60;99.90;;;;;;5066868;28;19924;-66
2023/04/01 14:15:34;;;;;;;;;;;8.60;99.90;;;;;;5030146;28;20533;-66
2023/04/01 14:18:06;;;;;;;;;;;8.50;99.90;;;;;;5049138;28;19975;-65
2023/04/01 14:20:56;;;;;;;;;;;8.50;99.90;;;;;;5051841;28;19928;-66
2023/04/01 14:23:43;;;;;;;;;;;8.40;99.90;;;;;;5065252;28;19977;-66
2023/04/01 14:26:22;;;;;;;;;;;8.40;99.90;;;;;;5060267;28;20012;-66
2023/04/01 14:28:57;;;;;;;;;;;8.40;99.90;;;;;;5057583;28;19925;-66
2023/04/01 14:31:29;;;;;;;;;;;8.50;99.90;;;;;;5063392;28;20031;-66
2023/04/01 14:34:20;;;;;;;;;;;8.60;99.90;;;;;;5063995;28;19920;-66
2023/04/01 14:36:57;;;;;;;;;;;8.60;99.90;;;;;;5048689;28;19921;-66
2023/04/01 14:39:48;;;;;;;;;;;8.80;99.90;;;;;;5061884;28;19927;-66
2023/04/01 14:42:36;;;;;;;;;;;8.80;99.90;;;;;;5064127;28;19927;-67
2023/04/01 14:45:20;;;;;;;;;;;8.90;99.90;;;;;;5057826;28;19959;-66
2023/04/01 14:47:54;;;;;;;;;;;8.90;99.90;;;;;;5062662;28;19920;-66
2023/04/01 14:50:28;;;;;;;;;;;8.90;99.90;;;;;;5059211;28;19928;-65
2023/04/01 14:53:09;;;;;;;;;;;8.90;99.90;;;;;;5061798;28;20380;-66
2023/04/01 14:55:40;;;;;;;;;;;9.00;99.90;;;;;;5050694;28;19925;-66
2023/04/01 14:58:14;;;;;;;;;;;9.10;99.90;;;;;;5047114;28;20455;-66
2023/04/01 15:00:49;;;;;;;;;;;9.00;99.90;;;;;;5063526;28;19928;-66
2023/04/01 15:03:45;;;;;;;;;;;9.00;99.90;;;;;;5067268;28;19920;-66
2023/04/01 15:06:32;;;;;;;;;;;9.00;99.90;;;;;;5061932;28;19924;-66
2023/04/01 15:09:10;;;;;;;;;;;8.90;99.90;;;;;;5066414;28;20406;-66
2023/04/01 15:11:41;;;;;;;;;;;8.90;99.90;;;;;;5069732;28;19947;-66
2023/04/01 15:14:19;;;;;;;;;;;8.90;99.90;;;;;;5064000;28;19921;-66
2023/04/01 15:17:10;;;;;;;;;;;8.90;99.90;;;;;;5061184;28;19928;-66
2023/04/01 15:19:48;;;;;;;;;;;9.00;99.90;;;;;;5046764;28;19925;-66
2023/04/01 15:22:40;;;;;;;;;;;9.00;99.90;;;;;;5049999;28;19988;-65
2023/04/01 15:25:10;;;;;;;;;;;9.00;99.90;;;;;;5051150;28;19924;-66
2023/04/01 15:28:14;;;;;;;;;;;9.00;99.90;;;;;;5063533;28;19920;-66
2023/04/01 15:31:14;;;;;;;;;;;9.00;99.90;;;;;;5025854;28;20389;-66
2023/04/01 15:33:46;;;;;;;;;;;9.00;99.90;;;;;;5047750;28;19936;-66
2023/04/01 15:36:12;;;;;;;;;;;9.10;99.90;;;;;;5048632;28;19935;-65
2023/04/01 15:38:44;;;;;;;;;;;9.10;99.90;;;;;;5063837;28;19921;-66
2023/04/01 15:41:22;;;;;;;;;;;9.10;99.90;;;;;;5066059;28;19974;-66